createdAt,value
2019-05-13T00:01:30.475Z,93.74
2019-05-13T00:04:03.738Z,93.65
2019-05-13T00:06:50.216Z,93.72
2019-05-13T00:09:11.213Z,93.95
2019-05-13T00:11:44.530Z,93.96
2019-05-13T00:14:17.623Z,94.27
2019-05-13T00:16:50.576Z,94.27
2019-05-13T00:19:24.369Z,94.47
2019-05-13T00:21:57.927Z,95.07
2019-05-13T00:24:30.844Z,95.05
2019-05-13T00:27:04.314Z,94.92
2019-05-13T00:29:37.303Z,95.42
2019-05-13T00:32:10.219Z,95.42
2019-05-13T00:34:44.530Z,95.49
2019-05-13T00:37:17.636Z,95.49
2019-05-13T00:39:50.544Z,95.38
2019-05-13T00:42:24.497Z,95.22
2019-05-13T00:44:57.611Z,95.11
2019-05-13T00:47:30.579Z,94.97
2019-05-13T00:50:03.880Z,94.83
2019-05-13T00:52:37.187Z,94.93
2019-05-13T00:55:10.311Z,94.82
2019-05-13T00:57:43.835Z,94.82
2019-05-13T01:00:17.423Z,94.19
2019-05-13T01:02:50.662Z,94.43
2019-05-13T01:05:23.565Z,94.52
2019-05-13T01:07:56.860Z,94.87
2019-05-13T01:10:29.719Z,95.84
2019-05-13T01:13:04.657Z,94.67
2019-05-13T01:15:37.577Z,95.68
2019-05-13T01:18:10.464Z,95.68
2019-05-13T01:20:43.864Z,95.47
2019-05-13T01:23:16.971Z,95.47
2019-05-13T01:25:49.884Z,95.18
2019-05-13T01:28:23.939Z,95.65
2019-05-13T01:30:56.926Z,96.06
2019-05-13T01:33:29.788Z,96.21
2019-05-13T01:36:05.221Z,95.83
2019-05-13T01:38:37.449Z,96.31
2019-05-13T01:41:10.415Z,96.31
2019-05-13T01:43:44.105Z,95.61
2019-05-13T01:46:17.147Z,95.61
2019-05-13T01:48:50.090Z,95.51
2019-05-13T01:51:23.986Z,95.49
2019-05-13T01:53:56.891Z,95.95
2019-05-13T01:56:29.759Z,96.02
2019-05-13T01:59:03.608Z,96.41
2019-05-13T02:01:37.247Z,96.41
2019-05-13T02:04:10.157Z,96.67
2019-05-13T02:06:44.297Z,96.64
2019-05-13T02:09:17.560Z,96.71
2019-05-13T02:11:50.473Z,96.18
2019-05-13T02:14:23.761Z,96.18
2019-05-13T02:16:57.199Z,96.51
2019-05-13T02:19:30.084Z,96.51
2019-05-13T02:22:03.964Z,96.52
2019-05-13T02:24:37.520Z,96.52
2019-05-13T02:27:10.449Z,95.76
2019-05-13T02:29:44.043Z,95.25
2019-05-13T02:32:17.103Z,95.22
2019-05-13T02:34:53.074Z,95.16
2019-05-13T02:37:29.223Z,96.18
2019-05-13T02:40:03.480Z,95.93
2019-05-13T02:42:34.661Z,96.17
2019-05-13T02:45:07.718Z,95.68
2019-05-13T02:47:44.081Z,96.30
2019-05-13T02:50:17.151Z,96.30
2019-05-13T02:52:52.959Z,96.34
2019-05-13T02:55:25.081Z,95.83
2019-05-13T02:57:58.051Z,96.21
2019-05-13T03:00:32.899Z,96.27
2019-05-13T03:03:05.801Z,96.27
2019-05-13T03:05:38.769Z,96.58
2019-05-13T03:08:12.763Z,96.01
2019-05-13T03:10:46.096Z,96.09
2019-05-13T03:13:19.072Z,96.16
2019-05-13T03:15:52.408Z,96.16
2019-05-13T03:18:25.359Z,96.33
2019-05-13T03:20:58.362Z,95.61
2019-05-13T03:23:32.958Z,95.61
2019-05-13T03:26:06.482Z,95.79
2019-05-13T03:28:39.435Z,96.12
2019-05-13T03:31:16.753Z,96.12
2019-05-13T03:33:47.844Z,95.90
2019-05-13T03:36:26.104Z,95.90
2019-05-13T03:39:05.695Z,95.90
2019-05-13T03:41:34.177Z,95.80
2019-05-13T03:44:13.486Z,96.00
2019-05-13T03:46:48.112Z,96.81
2019-05-13T03:49:24.101Z,96.50
2019-05-13T03:51:57.049Z,96.45
2019-05-13T03:54:32.746Z,96.46
2019-05-13T03:57:06.035Z,96.79
2019-05-13T03:59:43.334Z,96.57
2019-05-13T04:02:14.724Z,96.63
2019-05-13T04:04:47.787Z,96.93
2019-05-13T04:07:23.768Z,96.93
2019-05-13T04:09:55.790Z,96.88
2019-05-13T04:12:28.781Z,97.02
2019-05-13T04:15:03.493Z,97.02
2019-05-13T04:17:37.024Z,97.17
2019-05-13T04:20:12.659Z,96.97
2019-05-13T04:22:45.370Z,96.94
2019-05-13T04:25:18.291Z,96.94
2019-05-13T04:27:52.447Z,97.45
2019-05-13T04:30:25.468Z,97.45
2019-05-13T04:32:58.648Z,97.56
2019-05-13T04:35:33.618Z,97.57
2019-05-13T04:38:10.259Z,97.85
2019-05-13T04:40:42.394Z,97.65
2019-05-13T04:43:15.956Z,97.60
2019-05-13T04:45:52.243Z,97.60
2019-05-13T04:48:24.189Z,98.22
2019-05-13T04:50:57.262Z,98.07
2019-05-13T04:53:33.218Z,97.90
2019-05-13T04:56:05.083Z,97.94
2019-05-13T04:58:38.175Z,97.63
2019-05-13T05:01:52.277Z,97.70
2019-05-13T05:04:30.533Z,97.70
2019-05-13T05:07:12.809Z,98.01
2019-05-13T05:10:25.941Z,97.96
2019-05-13T05:12:57.935Z,97.96
2019-05-13T05:15:52.581Z,97.52
2019-05-13T05:19:02.263Z,97.47
2019-05-13T05:21:43.536Z,97.47
2019-05-13T05:25:06.734Z,97.54
2019-05-13T05:28:15.231Z,97.58
2019-05-13T05:31:26.120Z,97.58
2019-05-13T05:34:35.633Z,97.67
2019-05-13T05:37:22.350Z,97.63
2019-05-13T05:39:56.863Z,97.63
2019-05-13T05:42:32.218Z,97.56
2019-05-13T05:45:06.654Z,97.41
2019-05-13T05:47:41.947Z,97.64
2019-05-13T05:50:15.093Z,97.84
2019-05-13T05:52:51.354Z,97.46
2019-05-13T05:55:27.387Z,97.38
2019-05-13T05:58:02.301Z,97.38
2019-05-13T06:00:37.671Z,97.12
2019-05-13T06:03:13.840Z,96.88
2019-05-13T06:05:47.032Z,96.81
2019-05-13T06:08:22.080Z,96.60
2019-05-13T06:10:55.017Z,96.53
2019-05-13T06:13:28.438Z,96.52
2019-05-13T06:16:01.890Z,96.16
2019-05-13T06:18:34.991Z,96.31
2019-05-13T06:21:08.216Z,96.16
2019-05-13T06:23:41.932Z,96.16
2019-05-13T06:26:14.991Z,95.72
2019-05-13T06:28:48.030Z,95.72
2019-05-13T06:31:21.679Z,95.30
2019-05-13T06:33:54.987Z,95.17
2019-05-13T06:36:28.146Z,95.13
2019-05-13T06:39:02.424Z,94.91
2019-05-13T06:41:35.834Z,94.54
2019-05-13T06:44:08.874Z,94.60
2019-05-13T06:46:42.447Z,94.36
2019-05-13T06:49:15.512Z,94.28
2019-05-13T06:51:48.702Z,93.73
2019-05-13T06:54:22.116Z,92.86
2019-05-13T06:56:55.081Z,92.77
2019-05-13T06:59:28.076Z,92.66
2019-05-13T07:02:02.153Z,92.26
2019-05-13T07:04:35.359Z,92.40
2019-05-13T07:07:13.277Z,89.80
2019-05-13T07:09:43.198Z,88.17
2019-05-13T07:12:16.203Z,88.14
2019-05-13T07:14:51.155Z,86.16
2019-05-13T07:17:23.696Z,84.67
2019-05-13T07:19:56.884Z,84.67
2019-05-13T07:22:32.114Z,82.06
2019-05-13T07:25:04.728Z,81.60
2019-05-13T07:27:38.060Z,81.60
2019-05-13T07:30:11.495Z,81.01
2019-05-13T07:32:44.554Z,81.98
2019-05-13T07:35:17.570Z,81.98
2019-05-13T07:37:51.733Z,82.16
2019-05-13T07:40:25.227Z,78.09
2019-05-13T07:42:58.155Z,78.09
2019-05-13T07:45:31.665Z,80.40
2019-05-13T07:48:19.500Z,80.85
2019-05-13T07:50:55.562Z,74.03
2019-05-13T07:53:18.646Z,74.03
2019-05-13T07:55:49.572Z,72.63
2019-05-13T07:58:23.147Z,70.25
2019-05-13T08:00:56.327Z,72.68
2019-05-13T08:03:31.684Z,68.24
2019-05-13T08:06:04.383Z,68.24
2019-05-13T08:08:37.584Z,66.73
2019-05-13T08:11:12.694Z,62.14
2019-05-13T08:13:45.347Z,49.50
2019-05-13T08:16:18.391Z,49.50
2019-05-13T08:18:52.427Z,41.90
2019-05-13T08:21:25.427Z,40.95
2019-05-13T08:23:58.363Z,33.97
2019-05-13T08:26:32.288Z,33.97
2019-05-13T08:29:06.209Z,32.19
2019-05-13T08:31:41.197Z,29.69
2019-05-13T08:34:14.377Z,26.66
2019-05-13T08:36:47.664Z,26.97
2019-05-13T08:39:21.736Z,27.52
2019-05-13T08:41:54.842Z,27.52
2019-05-13T08:44:32.039Z,26.75
2019-05-13T08:47:04.088Z,26.75
2019-05-13T08:49:37.076Z,26.72
2019-05-13T08:52:12.068Z,26.72
2019-05-13T08:54:44.909Z,24.51
2019-05-13T08:57:18.222Z,25.57
2019-05-13T08:59:51.696Z,24.87
2019-05-13T09:02:25.079Z,23.01
2019-05-13T09:04:58.111Z,23.01
2019-05-13T09:07:32.054Z,22.84
2019-05-13T09:10:05.493Z,25.22
2019-05-13T09:12:41.005Z,21.91
2019-05-13T09:15:13.276Z,22.43
2019-05-13T09:17:46.211Z,22.43
2019-05-13T09:20:19.177Z,23.60
2019-05-13T09:22:52.202Z,22.28
2019-05-13T09:25:25.233Z,23.35
2019-05-13T09:27:58.205Z,21.13
2019-05-13T09:30:31.638Z,20.42
2019-05-13T09:33:04.755Z,20.25
2019-05-13T09:35:37.665Z,21.16
2019-05-13T09:38:12.691Z,21.16
2019-05-13T09:40:45.513Z,20.81
2019-05-13T09:43:18.557Z,20.81
2019-05-13T09:45:52.284Z,23.96
2019-05-13T09:48:25.800Z,25.08
2019-05-13T09:50:58.851Z,21.08
2019-05-13T09:53:32.745Z,21.08
2019-05-13T09:56:06.029Z,21.08
2019-05-13T09:58:38.927Z,19.50
2019-05-13T10:01:12.855Z,17.03
2019-05-13T10:03:56.996Z,19.98
2019-05-13T10:06:22.224Z,19.09
2019-05-13T10:08:55.438Z,18.13
2019-05-13T10:11:28.408Z,18.13
2019-05-13T10:14:02.077Z,17.44
2019-05-13T10:16:35.383Z,17.85
2019-05-13T10:19:08.481Z,17.85
2019-05-13T10:21:42.281Z,19.98
2019-05-13T10:24:15.697Z,20.23
2019-05-13T10:26:51.366Z,20.23
2019-05-13T10:29:23.665Z,20.16
2019-05-13T10:31:56.693Z,18.76
2019-05-13T10:34:32.137Z,18.76
2019-05-13T10:37:04.806Z,18.82
2019-05-13T10:39:38.046Z,19.94
2019-05-13T10:42:12.108Z,19.57
2019-05-13T10:44:45.332Z,19.90
2019-05-13T10:47:18.381Z,17.11
2019-05-13T10:49:52.361Z,17.11
2019-05-13T10:52:25.760Z,18.85
2019-05-13T10:54:58.668Z,20.46
2019-05-13T10:57:32.090Z,21.02
2019-05-13T11:00:05.887Z,19.59
2019-05-13T11:02:38.860Z,22.47
2019-05-13T11:05:12.532Z,22.47
2019-05-13T11:07:45.569Z,28.97
2019-05-13T11:10:22.627Z,25.96
2019-05-13T11:12:55.569Z,23.83
2019-05-13T11:15:32.831Z,23.83
2019-05-13T11:18:03.799Z,22.33
2019-05-13T11:20:37.271Z,22.33
2019-05-13T11:23:12.469Z,22.18
2019-05-13T11:25:45.132Z,24.41
2019-05-13T11:28:18.446Z,24.41
2019-05-13T11:30:52.188Z,25.57
2019-05-13T11:33:25.282Z,25.57
2019-05-13T11:35:58.161Z,27.61
2019-05-13T11:38:32.720Z,27.36
2019-05-13T11:41:05.655Z,25.94
2019-05-13T11:43:41.205Z,25.81
2019-05-13T11:46:13.376Z,23.31
2019-05-13T11:48:46.366Z,22.06
2019-05-13T11:51:19.626Z,20.24
2019-05-13T11:53:53.071Z,21.67
2019-05-13T11:56:26.566Z,21.78
2019-05-13T11:58:59.563Z,21.87
2019-05-13T12:04:07.119Z,24.01
2019-05-13T12:06:47.806Z,22.51
2019-05-13T12:09:14.632Z,22.51
2019-05-13T12:11:47.537Z,24.59
2019-05-13T12:14:43.101Z,22.39
2019-05-13T12:16:55.190Z,21.87
2019-05-13T12:19:28.060Z,21.25
2019-05-13T12:22:02.666Z,22.99
2019-05-13T12:24:35.701Z,22.99
2019-05-13T12:27:08.666Z,23.37
2019-05-13T12:29:43.326Z,25.63
2019-05-13T12:32:16.245Z,25.00
2019-05-13T12:34:51.834Z,23.80
2019-05-13T12:37:23.712Z,22.55
2019-05-13T12:39:56.717Z,23.50
2019-05-13T12:42:33.273Z,26.62
2019-05-13T12:45:09.841Z,25.88
2019-05-13T12:47:42.648Z,24.26
2019-05-13T12:50:14.668Z,22.88
2019-05-13T12:52:47.853Z,25.03
2019-05-13T12:55:21.772Z,30.77
2019-05-13T12:57:54.812Z,30.77
2019-05-13T13:00:27.902Z,27.44
2019-05-13T13:03:02.031Z,27.44
2019-05-13T13:05:37.027Z,25.72
2019-05-13T13:08:24.389Z,24.86
2019-05-13T13:10:45.009Z,23.91
2019-05-13T13:13:17.901Z,23.91
2019-05-13T13:15:52.786Z,24.29
2019-05-13T13:18:25.654Z,24.03
2019-05-13T13:21:05.181Z,22.93
2019-05-13T13:23:34.125Z,24.98
2019-05-13T13:26:15.317Z,24.98
2019-05-13T13:28:43.361Z,24.14
2019-05-13T13:31:16.697Z,23.59
2019-05-13T13:33:54.047Z,23.11
2019-05-13T13:36:24.495Z,24.27
2019-05-13T13:38:57.324Z,24.40
2019-05-13T13:41:32.787Z,22.82
2019-05-13T13:44:05.584Z,22.82
2019-05-13T13:46:44.612Z,24.34
2019-05-13T13:49:13.845Z,24.91
2019-05-13T13:51:46.680Z,23.16
2019-05-13T13:54:22.180Z,23.95
2019-05-13T13:56:55.975Z,26.02
2019-05-13T13:59:28.940Z,24.77
2019-05-13T14:02:05.451Z,25.36
2019-05-13T14:04:36.362Z,25.36
2019-05-13T14:07:03.004Z,21.87
2019-05-13T14:07:27.763Z,26.86
2019-05-13T14:09:43.846Z,26.86
2019-05-13T14:12:16.671Z,28.09
2019-05-13T14:14:51.911Z,28.09
2019-05-13T14:17:24.339Z,27.31
2019-05-13T14:19:57.210Z,26.26
2019-05-13T14:22:32.299Z,27.65
2019-05-13T14:25:05.187Z,27.65
2019-05-13T14:27:38.026Z,30.51
2019-05-13T14:30:11.854Z,30.25
2019-05-13T14:32:44.847Z,30.23
2019-05-13T14:35:18.121Z,30.48
2019-05-13T14:37:51.957Z,29.41
2019-05-13T14:40:24.949Z,29.41
2019-05-13T14:42:57.853Z,32.21
2019-05-13T14:45:31.901Z,31.00
2019-05-13T14:48:04.874Z,34.53
2019-05-13T14:50:37.802Z,35.20
2019-05-13T14:53:10.664Z,34.89
2019-05-13T14:55:43.505Z,34.52
2019-05-13T14:58:16.347Z,35.64
2019-05-13T15:01:07.027Z,36.32
2019-05-13T15:03:23.847Z,35.37
2019-05-13T15:05:56.783Z,35.37
2019-05-13T15:08:32.506Z,36.67
2019-05-13T15:11:04.469Z,38.79
2019-05-13T15:13:37.705Z,36.21
2019-05-13T15:16:10.642Z,37.85
2019-05-13T15:18:43.712Z,37.85
2019-05-13T15:21:16.648Z,37.12
2019-05-13T15:23:51.787Z,37.12
2019-05-13T15:26:24.337Z,37.00
2019-05-13T15:28:57.218Z,37.05
2019-05-13T15:31:31.595Z,39.32
2019-05-13T15:34:04.876Z,38.26
2019-05-13T15:36:38.049Z,38.26
2019-05-13T15:39:11.300Z,37.66
2019-05-13T15:41:44.897Z,38.59
2019-05-13T15:44:17.895Z,38.26
2019-05-13T15:46:52.407Z,38.84
2019-05-13T15:49:25.299Z,38.00
2019-05-13T15:51:58.526Z,38.00
2019-05-13T15:54:32.713Z,34.94
2019-05-13T15:57:05.815Z,38.56
2019-05-13T15:59:41.358Z,38.56
2019-05-13T16:02:13.603Z,39.04
2019-05-13T16:04:52.127Z,38.64
2019-05-13T16:07:21.143Z,38.64
2019-05-13T16:09:54.249Z,40.32
2019-05-13T16:12:27.148Z,39.63
2019-05-13T16:15:02.028Z,39.63
2019-05-13T16:17:41.157Z,37.78
2019-05-13T16:20:10.012Z,38.47
2019-05-13T16:22:42.910Z,38.47
2019-05-13T16:25:16.278Z,37.85
2019-05-13T16:27:49.300Z,39.44
2019-05-13T16:30:22.786Z,40.52
2019-05-13T16:32:55.795Z,40.05
2019-05-13T16:35:28.624Z,40.05
2019-05-13T16:38:01.996Z,41.59
2019-05-13T16:40:36.657Z,41.59
2019-05-13T16:43:12.616Z,42.31
2019-05-13T16:45:44.676Z,42.31
2019-05-13T16:48:17.764Z,41.34
2019-05-13T16:50:50.721Z,43.18
2019-05-13T16:53:25.988Z,44.81
2019-05-13T16:55:58.218Z,44.08
2019-05-13T16:58:32.385Z,44.44
2019-05-13T17:01:05.647Z,42.90
2019-05-13T17:03:41.176Z,43.63
2019-05-13T17:06:13.432Z,43.63
2019-05-13T17:08:46.411Z,43.75
2019-05-13T17:11:19.378Z,43.48
2019-05-13T17:13:52.280Z,43.92
2019-05-13T17:16:25.156Z,43.81
2019-05-13T17:18:58.038Z,44.82
2019-05-13T17:21:31.689Z,44.82
2019-05-13T17:24:04.920Z,45.55
2019-05-13T17:26:37.785Z,45.71
2019-05-13T17:29:12.016Z,46.33
2019-05-13T17:31:45.149Z,45.07
2019-05-13T17:34:18.036Z,45.07
2019-05-13T17:36:51.951Z,43.83
2019-05-13T17:39:25.055Z,43.76
2019-05-13T17:41:57.953Z,44.05
2019-05-13T17:44:31.800Z,44.05
2019-05-13T17:47:05.195Z,45.98
2019-05-13T17:49:38.045Z,45.98
2019-05-13T17:52:11.598Z,43.91
2019-05-13T17:54:44.564Z,45.51
2019-05-13T17:57:17.860Z,45.51
2019-05-13T17:59:52.138Z,47.13
2019-05-13T18:02:25.145Z,44.90
2019-05-13T18:04:58.044Z,46.03
2019-05-13T18:07:32.109Z,46.03
2019-05-13T18:10:05.401Z,45.38
2019-05-13T18:12:38.307Z,45.04
2019-05-13T18:15:12.314Z,45.04
2019-05-13T18:17:45.209Z,47.55
2019-05-13T18:20:18.282Z,47.55
2019-05-13T18:22:52.373Z,47.66
2019-05-13T18:25:25.473Z,48.95
2019-05-13T18:27:58.350Z,48.95
2019-05-13T18:30:31.767Z,48.81
2019-05-13T18:33:04.774Z,49.33
2019-05-13T18:35:37.626Z,49.33
2019-05-13T18:38:11.907Z,50.74
2019-05-13T18:40:44.900Z,52.06
2019-05-13T18:43:17.828Z,53.91
2019-05-13T18:45:52.571Z,53.91
2019-05-13T18:48:25.328Z,54.38
2019-05-13T18:50:58.510Z,55.13
2019-05-13T18:53:32.184Z,57.07
2019-05-13T18:56:05.314Z,58.23
2019-05-13T18:58:38.155Z,58.67
2019-05-13T19:01:11.372Z,59.61
2019-05-13T19:03:44.819Z,60.52
2019-05-13T19:06:17.720Z,60.52
2019-05-13T19:08:52.687Z,60.78
2019-05-13T19:11:25.385Z,61.84
2019-05-13T19:13:58.249Z,62.89
2019-05-13T19:16:31.924Z,62.75
2019-05-13T19:19:12.197Z,62.75
2019-05-13T19:21:41.520Z,63.93
2019-05-13T19:24:14.450Z,64.28
2019-05-13T19:26:47.700Z,64.50
2019-05-13T19:29:21.869Z,65.41
2019-05-13T19:31:54.864Z,65.41
2019-05-13T19:34:27.998Z,67.52
2019-05-13T19:37:02.412Z,67.52
2019-05-13T19:39:35.619Z,68.79
2019-05-13T19:42:08.529Z,67.94
2019-05-13T19:44:42.048Z,68.99
2019-05-13T19:47:15.170Z,68.99
2019-05-13T19:49:48.198Z,70.21
2019-05-13T19:52:21.449Z,70.21
2019-05-13T19:54:54.754Z,70.52
2019-05-13T19:57:27.672Z,71.27
2019-05-13T20:00:01.381Z,72.16
2019-05-13T20:02:34.761Z,72.57
2019-05-13T20:05:07.903Z,73.06
2019-05-13T20:07:41.994Z,73.37
2019-05-13T20:10:15.344Z,73.88
2019-05-13T20:12:48.379Z,74.25
2019-05-13T20:15:22.071Z,74.25
2019-05-13T20:17:55.361Z,74.95
2019-05-13T20:20:28.580Z,75.76
2019-05-13T20:23:01.676Z,75.76
2019-05-13T20:25:35.021Z,76.30
2019-05-13T20:28:08.792Z,76.69
2019-05-13T20:30:43.803Z,76.62
2019-05-13T20:33:16.400Z,76.88
2019-05-13T20:35:49.246Z,76.88
2019-05-13T20:38:22.304Z,77.39
2019-05-13T20:40:55.497Z,79.26
2019-05-13T20:43:28.478Z,79.26
2019-05-13T20:46:02.172Z,78.88
2019-05-13T20:48:35.360Z,78.76
2019-05-13T20:51:08.567Z,79.10
2019-05-13T20:53:41.633Z,79.43
2019-05-13T20:56:14.610Z,80.43
2019-05-13T20:58:47.714Z,80.43
2019-05-13T21:01:20.697Z,80.62
2019-05-13T21:03:53.620Z,80.72
2019-05-13T21:06:26.609Z,80.82
2019-05-13T21:09:01.533Z,82.06
2019-05-13T21:11:35.051Z,81.88
2019-05-13T21:14:07.995Z,81.62
2019-05-13T21:16:41.809Z,82.23
2019-05-13T21:19:15.183Z,82.32
2019-05-13T21:21:48.090Z,82.60
2019-05-13T21:24:21.420Z,82.97
2019-05-13T21:26:54.443Z,82.78
2019-05-13T21:29:27.400Z,83.83
2019-05-13T21:32:01.156Z,83.42
2019-05-13T21:34:34.137Z,83.71
2019-05-13T21:37:07.007Z,83.80
2019-05-13T21:39:41.279Z,84.30
2019-05-13T21:42:14.388Z,84.42
2019-05-13T21:44:47.300Z,84.37
2019-05-13T21:47:22.004Z,84.77
2019-05-13T21:49:55.243Z,84.87
2019-05-13T21:52:28.177Z,84.58
2019-05-13T21:55:01.854Z,84.95
2019-05-13T21:57:34.930Z,84.92
2019-05-13T22:00:08.583Z,85.56
2019-05-13T22:02:41.595Z,85.82
2019-05-13T22:05:14.666Z,85.93
2019-05-13T22:07:47.579Z,86.43
2019-05-13T22:10:21.603Z,86.19
2019-05-13T22:12:54.721Z,86.34
2019-05-13T22:15:27.807Z,86.36
2019-05-13T22:18:01.893Z,86.36
2019-05-13T22:20:48.989Z,86.34
2019-05-13T22:23:11.932Z,86.58
2019-05-13T22:25:44.967Z,87.05
2019-05-13T22:28:17.919Z,87.04
2019-05-13T22:30:51.801Z,86.85
2019-05-13T22:33:25.372Z,87.11
2019-05-13T22:35:58.349Z,87.43
2019-05-13T22:38:32.258Z,87.43
2019-05-13T22:41:05.714Z,87.41
2019-05-13T22:43:52.460Z,87.44
2019-05-13T22:46:14.213Z,87.83
2019-05-13T22:48:47.278Z,87.77
2019-05-13T22:51:21.388Z,87.91
2019-05-13T22:53:54.838Z,87.91
2019-05-13T22:56:27.749Z,88.32
2019-05-13T22:59:02.103Z,88.32
2019-05-13T23:01:35.146Z,88.39
2019-05-13T23:04:08.203Z,88.54
2019-05-13T23:06:41.404Z,88.86
2019-05-13T23:09:14.281Z,88.86
2019-05-13T23:11:47.208Z,89.45
2019-05-13T23:14:22.025Z,89.61
2019-05-13T23:16:54.889Z,89.68
2019-05-13T23:19:28.140Z,90.00
2019-05-13T23:22:01.580Z,89.90
2019-05-13T23:24:34.568Z,89.90
2019-05-13T23:27:07.579Z,90.26
2019-05-13T23:29:41.257Z,90.61
2019-05-13T23:32:14.323Z,90.61
2019-05-13T23:34:47.172Z,90.37
2019-05-13T23:37:21.839Z,90.25
2019-05-13T23:39:54.559Z,90.25
2019-05-13T23:42:27.429Z,89.90
2019-05-13T23:45:00.265Z,90.33
2019-05-13T23:47:33.262Z,90.75
2019-05-13T23:50:06.659Z,90.89
2019-05-13T23:52:41.821Z,91.08
2019-05-13T23:55:14.864Z,91.08
2019-05-13T23:57:47.711Z,91.08
